Taihei Maru — JG5546 — position and weather

sailwx.info

Track history (hours):
 
Tides and Currents Weather Stations Pressure Air Temp Water Temp Dewpoint Dewpoint Depression Visibility Wind Speed Wind Dir Waves Ship Positions

Taihei Maru

Last reported at 2018-Feb-22 13:13 UTC. Time now 2018-Feb-22 22:59 UTC.
Position N 34°27' E 134°03'.

Length 62 m; draft 4.1 m.

Type: Ship. MMSI: 431301369.

Date/timePositionNaut miles runAvg speedWind from/ knotsBaromVisibWave heightAir tempDewpointWater temp
2018-Feb-22 13:13N 34°27' E 134°03'912.0
2018-Feb-22 12:28N 34°24' E 134°14'611.8
2018-Feb-22 12:00N 34°24' E 134°20'612.0
2018-Feb-22 11:30N 34°21' E 134°26'812.0
2018-Feb-22 10:50N 34°17' E 134°35'510.8
2018-Feb-22 10:23N 34°14' E 134°39'710.4
2018-Feb-22 09:45N 34°08' E 134°43'311.1
2018-Feb-22 09:27N 34°05' E 134°45'510.0
2018-Feb-22 08:59N 34°01' E 134°47'510.5
2018-Feb-22 08:29N 33°57' E 134°52'4 7.3
2018-Feb-22 07:59N 33°54' E 134°52'172 9.2
2018-Feb-21 13:15N 34°33' E 138°15'910.4
2018-Feb-21 12:24N 34°35' E 138°26'610.5
2018-Feb-21 11:51N 34°35' E 138°33'610.3
2018-Feb-21 11:16N 34°35' E 138°40'310.6
2018-Feb-21 10:58N 34°35' E 138°44'510.5
2018-Feb-21 10:30N 34°35' E 138°50'611.7
2018-Feb-21 09:57N 34°36' E 138°57'612.5
2018-Feb-21 09:30N 34°40' E 139°02'2511.5
2018-Feb-21 07:22N 34°58' E 139°24'411.1
2018-Feb-21 07:00N 34°60' E 139°28'611.4
2018-Feb-21 06:27N 35°03' E 139°34'612.0
2018-Feb-21 05:59N 35°06' E 139°40'611.7
2018-Feb-21 05:30N 35°10' E 139°45'611.6
2018-Feb-21 05:00N 35°16' E 139°46'611.8
2018-Feb-21 04:30N 35°21' E 139°42'511.0
2018-Feb-21 04:01N 35°26' E 139°45'612.1
2018-Feb-21 03:30N 35°29' E 139°51'611.6
2018-Feb-21 02:59N 35°31' E 139°58'3 2.3
2018-Feb-21 01:33N 35°30' E 140°02'0 0.0
2018-Feb-21 01:27N 35°30' E 140°02'0 0.0
2018-Feb-20 23:36N 35°30' E 140°02'0 0.0
2018-Feb-20 23:19N 35°30' E 140°02'1 1.9
2018-Feb-20 22:58N 35°30' E 140°01'2 3.3
2018-Feb-20 22:30N 35°31' E 140°01'3 6.9
2018-Feb-20 22:00N 35°34' E 140°04'0 0.1
2018-Feb-20 21:28N 35°34' E 140°03'0 0.0
2018-Feb-20 20:55N 35°34' E 140°03'0 0.0
2018-Feb-20 20:25N 35°34' E 140°03'0 0.0
2018-Feb-20 19:55N 35°34' E 140°03'0 0.1
2018-Feb-20 19:28N 35°34' E 140°04'0 0.0
2018-Feb-20 18:55N 35°34' E 140°04'0 0.0
2018-Feb-20 18:25N 35°34' E 140°04'0 0.1
2018-Feb-20 17:55N 35°34' E 140°03'0 0.1
2018-Feb-20 17:28N 35°34' E 140°04'0 0.1
2018-Feb-20 16:58N 35°34' E 140°03'0 0.0
2018-Feb-20 16:28N 35°34' E 140°03'0 0.0
2018-Feb-20 15:55N 35°34' E 140°03'0 0.0
2018-Feb-20 15:25N 35°34' E 140°03'0 0.2
2018-Feb-20 14:58N 35°34' E 140°04'0 0.1
2018-Feb-20 14:25N 35°34' E 140°03'0 0.0
2018-Feb-20 13:58N 35°34' E 140°03'0 0.0
2018-Feb-20 13:25N 35°34' E 140°03'0 0.0
2018-Feb-20 12:55N 35°34' E 140°03'0 0.0
2018-Feb-20 12:25N 35°34' E 140°03'0 0.0
2018-Feb-20 11:49N 35°34' E 140°03'0 0.0
2018-Feb-20 11:28N 35°34' E 140°03'0 0.0
2018-Feb-20 10:55N 35°34' E 140°03'0 0.0
2018-Feb-20 10:28N 35°34' E 140°03'0 0.0
2018-Feb-20 09:55N 35°34' E 140°03'0 0.0
2018-Feb-20 09:25N 35°34' E 140°03'0 0.0
2018-Feb-20 08:58N 35°34' E 140°03'0 0.0
2018-Feb-20 08:25N 35°34' E 140°03'0 0.0
2018-Feb-20 07:55N 35°34' E 140°03'0 0.0
2018-Feb-20 07:25N 35°34' E 140°03'0 0.1
2018-Feb-20 06:55N 35°34' E 140°04'0 0.0
2018-Feb-20 06:25N 35°34' E 140°04'0 0.0
2018-Feb-20 05:55N 35°34' E 140°04'0 0.0
2018-Feb-20 05:28N 35°34' E 140°04'0 0.0
2018-Feb-20 04:55N 35°34' E 140°04'0 0.0
2018-Feb-20 04:28N 35°34' E 140°04'0 0.0
2018-Feb-20 03:58N 35°34' E 140°04'0 0.0
2018-Feb-20 03:25N 35°34' E 140°04'0 0.0
2018-Feb-20 02:58N 35°34' E 140°04'0 0.0
2018-Feb-20 02:28N 35°34' E 140°04'0 0.1
2018-Feb-20 01:58N 35°34' E 140°03'0 0.0
2018-Feb-20 01:28N 35°34' E 140°03'0 0.0
2018-Feb-20 00:55N 35°34' E 140°03'0 0.0
2018-Feb-20 00:28N 35°34' E 140°03'0 0.0
2018-Feb-19 23:58N 35°34' E 140°03'0 0.0
2018-Feb-19 23:25N 35°34' E 140°03'0 0.0
2018-Feb-19 22:55N 35°34' E 140°03'0 0.1
2018-Feb-19 22:28N 35°34' E 140°04'0 0.0
2018-Feb-19 21:55N 35°34' E 140°04'0 0.0
2018-Feb-19 21:25N 35°34' E 140°04'0 0.1
2018-Feb-19 20:58N 35°34' E 140°03'0 0.0
2018-Feb-19 20:28N 35°34' E 140°03'0 0.1
2018-Feb-19 19:55N 35°34' E 140°04'0 0.0
2018-Feb-19 19:25N 35°34' E 140°04'0 0.1
2018-Feb-19 18:58N 35°34' E 140°03'0 0.0
2018-Feb-19 18:28N 35°34' E 140°03'0 0.0
2018-Feb-19 17:58N 35°34' E 140°03'0 0.0
2018-Feb-19 17:25N 35°34' E 140°03'0 0.0
2018-Feb-19 16:55N 35°34' E 140°03'0 0.0
2018-Feb-19 16:25N 35°34' E 140°03'0 0.0
2018-Feb-19 15:58N 35°34' E 140°03'0 0.0
2018-Feb-19 15:25N 35°34' E 140°03'0 0.0
2018-Feb-19 14:58N 35°34' E 140°03'0 0.0
2018-Feb-19 14:19N 35°34' E 140°03'0 0.0
2018-Feb-19 13:55N 35°34' E 140°03'0 0.0
2018-Feb-19 13:28N 35°34' E 140°03'0 0.0
2018-Feb-19 12:55N 35°34' E 140°03'0 0.0
2018-Feb-19 12:25N 35°34' E 140°03'0 0.0
2018-Feb-19 11:55N 35°34' E 140°03'0 0.0
2018-Feb-19 11:28N 35°34' E 140°03'0 0.0
2018-Feb-19 10:55N 35°34' E 140°03'0 0.0
2018-Feb-19 10:25N 35°34' E 140°03'0 0.0
2018-Feb-19 09:55N 35°34' E 140°03'0 0.0
2018-Feb-19 09:25N 35°34' E 140°03'0 0.0
2018-Feb-19 08:58N 35°34' E 140°03'0 0.0
2018-Feb-19 08:25N 35°34' E 140°03'0 0.1
2018-Feb-19 07:55N 35°34' E 140°04'0 0.0
2018-Feb-19 07:25N 35°34' E 140°04'0 0.6
2018-Feb-19 07:00N 35°34' E 140°03'4 8.6
2018-Feb-19 06:30N 35°31' E 139°59'4 7.7
2018-Feb-19 05:59N 35°29' E 139°55'0 0.1
2018-Feb-19 05:28N 35°29' E 139°55'0 0.0
2018-Feb-19 04:58N 35°29' E 139°55'0 0.0
2018-Feb-19 04:25N 35°29' E 139°55'0 0.0
2018-Feb-19 03:55N 35°29' E 139°55'0 0.0
2018-Feb-19 03:25N 35°29' E 139°55'0 0.0
2018-Feb-19 02:55N 35°29' E 139°55'0 0.0
2018-Feb-19 02:28N 35°29' E 139°55'0 0.0
2018-Feb-19 01:58N 35°29' E 139°55'0 0.0
2018-Feb-19 01:28N 35°29' E 139°55'0 0.0
2018-Feb-19 00:55N 35°29' E 139°55'0 0.0
2018-Feb-19 00:28N 35°29' E 139°55'0 0.0
2018-Feb-18 23:58N 35°29' E 139°55'0 0.1
2018-Feb-18 23:28N 35°29' E 139°55'0 0.0
2018-Feb-18 22:58N 35°29' E 139°55'0 0.0
2018-Feb-18 22:28N 35°29' E 139°55'0 0.4
2018-Feb-18 22:01N 35°29' E 139°55'510.8
2018-Feb-18 21:31N 35°26' E 139°49'611.9
2018-Feb-18 21:00N 35°21' E 139°45'611.3
2018-Feb-18 20:31N 35°16' E 139°47'612.2
2018-Feb-18 20:00N 35°10' E 139°47'611.9
2018-Feb-18 19:28N 35°04' E 139°44'611.9
2018-Feb-18 18:58N 35°00' E 139°39'712.0
2018-Feb-18 18:25N 34°56' E 139°32'612.1
2018-Feb-18 17:57N 34°53' E 139°27'612.9
2018-Feb-18 17:30N 34°49' E 139°21'713.4
2018-Feb-18 17:00N 34°45' E 139°15'713.6
2018-Feb-18 16:30N 34°41' E 139°08'712.9
2018-Feb-18 15:58N 34°36' E 139°02'612.0
2018-Feb-18 15:29N 34°34' E 138°56'612.8
2018-Feb-18 14:59N 34°33' E 138°48'612.3
2018-Feb-18 14:28N 34°33' E 138°40'712.9
2018-Feb-18 13:57N 34°33' E 138°32'612.4
2018-Feb-18 13:27N 34°33' E 138°25'612.3
2018-Feb-18 12:57N 34°32' E 138°17'5412.5
2018-Feb-18 08:36N 34°32' E 137°11'112.7
2018-Feb-18 08:30N 34°32' E 137°10'611.8
2018-Feb-18 07:58N 34°32' E 137°02'811.2
2018-Feb-18 07:13N 34°38' E 136°54'311.6
2018-Feb-18 06:59N 34°39' E 136°51'612.1
2018-Feb-18 06:30N 34°44' E 136°47'612.3
2018-Feb-18 06:00N 34°50' E 136°44'612.2
2018-Feb-18 05:30N 34°55' E 136°42'4 6.2
2018-Feb-18 04:55N 34°59' E 136°40'0 0.0
2018-Feb-18 04:25N 34°59' E 136°40'0 0.0
2018-Feb-18 03:58N 34°59' E 136°40'0 0.0
2018-Feb-18 03:25N 34°59' E 136°40'0 0.0
2018-Feb-18 02:55N 34°59' E 136°40'0 0.3
2018-Feb-18 02:31N 34°59' E 136°40'1 2.2
2018-Feb-18 02:01N 34°58' E 136°41'1 0.9
2018-Feb-18 01:26N 34°57' E 136°41'0 0.0
2018-Feb-18 00:56N 34°57' E 136°41'0 0.0
2018-Feb-18 00:29N 34°57' E 136°41'0 0.0
2018-Feb-17 23:56N 34°57' E 136°41'0 0.0
2018-Feb-17 23:26N 34°57' E 136°41'0 0.0
2018-Feb-17 22:56N 34°57' E 136°41'0 0.0
2018-Feb-17 22:14N 34°57' E 136°41'0 0.0
2018-Feb-17 21:56N 34°57' E 136°41'0 0.0
2018-Feb-17 21:26N 34°57' E 136°41'0 0.0
2018-Feb-17 20:56N 34°57' E 136°41'0 0.0
2018-Feb-17 20:26N 34°57' E 136°41'0 0.0
2018-Feb-17 19:56N 34°57' E 136°41'0 0.0
2018-Feb-17 19:26N 34°57' E 136°41'0 0.0
2018-Feb-17 18:59N 34°57' E 136°41'0 0.0
2018-Feb-17 18:26N 34°57' E 136°41'0 0.0
2018-Feb-17 17:56N 34°57' E 136°41'0 0.0
2018-Feb-17 17:26N 34°57' E 136°41'0 0.0
2018-Feb-17 16:59N 34°57' E 136°41'0 0.6
2018-Feb-17 16:30N 34°57' E 136°41'510.6
2018-Feb-17 16:00N 34°52' E 136°43'510.6
2018-Feb-17 15:30N 34°48' E 136°46'5 9.7
2018-Feb-17 14:58N 34°43' E 136°49'5 9.5
2018-Feb-17 14:26N 34°39' E 136°53'253 9.2
2018-Feb-16 10:52N 33°10' E 132°08'610.6
2018-Feb-16 10:17N 33°14' E 132°04'310.8
2018-Feb-16 09:59N 33°17' E 132°02'810.2
2018-Feb-16 09:12N 33°24' E 131°57'510.8
2018-Feb-16 08:44N 33°29' E 131°55'311.0
2018-Feb-16 08:27N 33°32' E 131°54'611.4
2018-Feb-16 07:53N 33°38' E 131°52'511.5
2018-Feb-16 07:29N 33°43' E 131°50'611.8
2018-Feb-16 06:59N 33°48' E 131°48'611.8
2018-Feb-16 06:30N 33°54' E 131°47'611.6
2018-Feb-16 06:00N 33°59' E 131°45'4 0.6
2018-Feb-15 23:26N 34°02' E 131°48'1 0.4
2018-Feb-15 21:07N 34°02' E 131°48'0 0.0
2018-Feb-15 16:13N 34°02' E 131°48'0 0.0
2018-Feb-15 15:49N 34°02' E 131°48'0 0.1
2018-Feb-15 15:25N 34°02' E 131°48'0 0.0
2018-Feb-15 14:43N 34°02' E 131°48'0 0.1
2018-Feb-15 14:25N 34°02' E 131°48'0 0.0
2018-Feb-15 13:19N 34°02' E 131°48'0 0.1
2018-Feb-15 12:55N 34°02' E 131°48'2 4.4
2018-Feb-15 12:30N 34°00' E 131°47'4 8.7
2018-Feb-15 12:00N 33°56' E 131°47'811.8
2018-Feb-15 11:19N 33°51' E 131°55'511.9
2018-Feb-15 10:55N 33°48' E 131°60'5 9.5
2018-Feb-15 10:26N 33°47' E 132°05'511.2
2018-Feb-15 09:59N 33°49' E 132°10'611.3
2018-Feb-15 09:27N 33°50' E 132°17'1211.1
2018-Feb-15 08:23N 33°53' E 132°31'512.1
2018-Feb-15 08:00N 33°54' E 132°36'712.5
2018-Feb-15 07:25N 33°59' E 132°43'7811.2
2018-Feb-15 00:24N 34°24' E 134°13'512.6
2018-Feb-15 00:00N 34°24' E 134°19'612.3
2018-Feb-14 23:30N 34°21' E 134°26'612.2
2018-Feb-14 23:00N 34°17' E 134°32'711.9
2018-Feb-14 22:25N 34°14' E 134°39'613.0
2018-Feb-14 21:55N 34°09' E 134°44'512.0
2018-Feb-14 21:29N 34°05' E 134°48'712.1
2018-Feb-14 20:55N 34°00' E 134°54'511.8
2018-Feb-14 20:27N 33°56' E 134°58'512.2
2018-Feb-14 20:00N 33°52' E 135°02'102 7.4
2018-Feb-14 06:19N 34°38' E 136°52'411.2
2018-Feb-14 05:58N 34°41' E 136°49'511.8
2018-Feb-14 05:30N 34°46' E 136°46'611.6
2018-Feb-14 05:00N 34°52' E 136°43'611.2
2018-Feb-14 04:30N 34°57' E 136°41'2 4.1
2018-Feb-14 04:00N 34°59' E 136°40'0 0.0
2018-Feb-14 03:27N 34°59' E 136°40'0 0.0
2018-Feb-14 02:57N 34°59' E 136°40'0 0.0
2018-Feb-14 02:27N 34°59' E 136°40'0 0.0
2018-Feb-14 01:57N 34°59' E 136°40'0 0.0
2018-Feb-14 01:27N 34°59' E 136°40'0 0.0
2018-Feb-14 00:57N 34°59' E 136°40'0 0.0
2018-Feb-14 00:30N 34°59' E 136°40'0 0.0
2018-Feb-13 23:57N 34°59' E 136°40'0 0.0
2018-Feb-13 23:27N 34°59' E 136°40'1 2.3
2018-Feb-13 23:00N 34°58' E 136°41'0 0.5
2018-Feb-13 22:19N 34°58' E 136°41'0 0.1
2018-Feb-13 21:55N 34°58' E 136°41'0 0.0
2018-Feb-13 21:25N 34°58' E 136°41'0 0.0
2018-Feb-13 20:55N 34°58' E 136°41'0 0.0
2018-Feb-13 20:25N 34°58' E 136°41'0 0.0
2018-Feb-13 19:58N 34°58' E 136°41'0 0.0
2018-Feb-13 19:25N 34°58' E 136°41'0 0.1
2018-Feb-13 18:58N 34°58' E 136°41'0 0.1
2018-Feb-13 18:28N 34°58' E 136°41'0 0.0
2018-Feb-13 17:55N 34°58' E 136°41'0 0.1
2018-Feb-13 17:25N 34°58' E 136°41'0 0.0
2018-Feb-13 16:58N 34°58' E 136°41'0 0.1
2018-Feb-13 16:25N 34°58' E 136°41'0 0.1
2018-Feb-13 15:55N 34°58' E 136°41'0 0.1
2018-Feb-13 15:25N 34°58' E 136°41'0 0.0
2018-Feb-13 14:55N 34°58' E 136°41'0 0.0
2018-Feb-13 14:25N 34°58' E 136°41'0 0.0
2018-Feb-13 13:58N 34°58' E 136°41'0 0.0
2018-Feb-13 13:25N 34°58' E 136°41'0 0.1
2018-Feb-13 12:55N 34°58' E 136°41'0 0.0
2018-Feb-13 12:25N 34°58' E 136°41'0 0.0
2018-Feb-13 11:55N 34°58' E 136°41'0 0.0
2018-Feb-13 11:25N 34°58' E 136°41'0 0.0
2018-Feb-13 10:55N 34°58' E 136°41'0 0.0
2018-Feb-13 10:25N 34°58' E 136°41'0 0.0
2018-Feb-13 09:55N 34°58' E 136°41'0 0.1
2018-Feb-13 09:25N 34°58' E 136°41'0 0.0
2018-Feb-13 09:00N 34°58' E 136°41'5 9.8
2018-Feb-13 08:31N 34°53' E 136°42'510.8
2018-Feb-13 08:01N 34°49' E 136°46'510.9
2018-Feb-13 07:31N 34°44' E 136°49'102 7.9
2018-Feb-12 18:34N 33°45' E 135°08'311.9
2018-Feb-12 18:17N 33°48' E 135°05'412.0
2018-Feb-12 17:59N 33°51' E 135°03'611.9
2018-Feb-12 17:30N 33°55' E 134°58'611.7
2018-Feb-12 17:00N 33°59' E 134°53'611.7
2018-Feb-12 16:30N 34°04' E 134°49'612.2
2018-Feb-12 16:00N 34°09' E 134°44'612.8
2018-Feb-12 15:30N 34°14' E 134°39'612.2
2018-Feb-12 14:59N 34°17' E 134°33'612.2
2018-Feb-12 14:30N 34°19' E 134°26'  
Track history (hours):
 
Tides and Currents Weather Stations Pressure Air Temp Water Temp Dewpoint Dewpoint Depression Visibility Wind Speed Wind Dir Waves Ship Positions

Taihei Maru

Last reported at 2018-Feb-22 13:13 UTC. Time now 2018-Feb-22 22:59 UTC.
Position N 34°27' E 134°03'.

Length 62 m; draft 4.1 m.

Type: Ship. MMSI: 431301369.

Date/timePositionNaut miles runAvg speedWind from/ knotsBaromVisibWave heightAir tempDewpointWater temp
2018-Feb-22 13:13N 34°27' E 134°03'912.0
2018-Feb-22 12:28N 34°24' E 134°14'611.8
2018-Feb-22 12:00N 34°24' E 134°20'612.0
2018-Feb-22 11:30N 34°21' E 134°26'812.0
2018-Feb-22 10:50N 34°17' E 134°35'510.8
2018-Feb-22 10:23N 34°14' E 134°39'710.4
2018-Feb-22 09:45N 34°08' E 134°43'311.1
2018-Feb-22 09:27N 34°05' E 134°45'510.0
2018-Feb-22 08:59N 34°01' E 134°47'510.5
2018-Feb-22 08:29N 33°57' E 134°52'4 7.3
2018-Feb-22 07:59N 33°54' E 134°52'172 9.2
2018-Feb-21 13:15N 34°33' E 138°15'910.4
2018-Feb-21 12:24N 34°35' E 138°26'610.5
2018-Feb-21 11:51N 34°35' E 138°33'610.3
2018-Feb-21 11:16N 34°35' E 138°40'310.6
2018-Feb-21 10:58N 34°35' E 138°44'510.5
2018-Feb-21 10:30N 34°35' E 138°50'611.7
2018-Feb-21 09:57N 34°36' E 138°57'612.5
2018-Feb-21 09:30N 34°40' E 139°02'2511.5
2018-Feb-21 07:22N 34°58' E 139°24'411.1
2018-Feb-21 07:00N 34°60' E 139°28'611.4
2018-Feb-21 06:27N 35°03' E 139°34'612.0
2018-Feb-21 05:59N 35°06' E 139°40'611.7
2018-Feb-21 05:30N 35°10' E 139°45'611.6
2018-Feb-21 05:00N 35°16' E 139°46'611.8
2018-Feb-21 04:30N 35°21' E 139°42'511.0
2018-Feb-21 04:01N 35°26' E 139°45'612.1
2018-Feb-21 03:30N 35°29' E 139°51'611.6
2018-Feb-21 02:59N 35°31' E 139°58'3 2.3
2018-Feb-21 01:33N 35°30' E 140°02'0 0.0
2018-Feb-21 01:27N 35°30' E 140°02'0 0.0
2018-Feb-20 23:36N 35°30' E 140°02'0 0.0
2018-Feb-20 23:19N 35°30' E 140°02'1 1.9
2018-Feb-20 22:58N 35°30' E 140°01'2 3.3
2018-Feb-20 22:30N 35°31' E 140°01'3 6.9
2018-Feb-20 22:00N 35°34' E 140°04'0 0.1
2018-Feb-20 21:28N 35°34' E 140°03'0 0.0
2018-Feb-20 20:55N 35°34' E 140°03'0 0.0
2018-Feb-20 20:25N 35°34' E 140°03'0 0.0
2018-Feb-20 19:55N 35°34' E 140°03'0 0.1
2018-Feb-20 19:28N 35°34' E 140°04'0 0.0
2018-Feb-20 18:55N 35°34' E 140°04'0 0.0
2018-Feb-20 18:25N 35°34' E 140°04'0 0.1
2018-Feb-20 17:55N 35°34' E 140°03'0 0.1
2018-Feb-20 17:28N 35°34' E 140°04'0 0.1
2018-Feb-20 16:58N 35°34' E 140°03'0 0.0
2018-Feb-20 16:28N 35°34' E 140°03'0 0.0
2018-Feb-20 15:55N 35°34' E 140°03'0 0.0
2018-Feb-20 15:25N 35°34' E 140°03'0 0.2
2018-Feb-20 14:58N 35°34' E 140°04'0 0.1
2018-Feb-20 14:25N 35°34' E 140°03'0 0.0
2018-Feb-20 13:58N 35°34' E 140°03'0 0.0
2018-Feb-20 13:25N 35°34' E 140°03'0 0.0
2018-Feb-20 12:55N 35°34' E 140°03'0 0.0
2018-Feb-20 12:25N 35°34' E 140°03'0 0.0
2018-Feb-20 11:49N 35°34' E 140°03'0 0.0
2018-Feb-20 11:28N 35°34' E 140°03'0 0.0
2018-Feb-20 10:55N 35°34' E 140°03'0 0.0
2018-Feb-20 10:28N 35°34' E 140°03'0 0.0
2018-Feb-20 09:55N 35°34' E 140°03'0 0.0
2018-Feb-20 09:25N 35°34' E 140°03'0 0.0
2018-Feb-20 08:58N 35°34' E 140°03'0 0.0
2018-Feb-20 08:25N 35°34' E 140°03'0 0.0
2018-Feb-20 07:55N 35°34' E 140°03'0 0.0
2018-Feb-20 07:25N 35°34' E 140°03'0 0.1
2018-Feb-20 06:55N 35°34' E 140°04'0 0.0
2018-Feb-20 06:25N 35°34' E 140°04'0 0.0
2018-Feb-20 05:55N 35°34' E 140°04'0 0.0
2018-Feb-20 05:28N 35°34' E 140°04'0 0.0
2018-Feb-20 04:55N 35°34' E 140°04'0 0.0
2018-Feb-20 04:28N 35°34' E 140°04'0 0.0
2018-Feb-20 03:58N 35°34' E 140°04'0 0.0
2018-Feb-20 03:25N 35°34' E 140°04'0 0.0
2018-Feb-20 02:58N 35°34' E 140°04'0 0.0
2018-Feb-20 02:28N 35°34' E 140°04'0 0.1
2018-Feb-20 01:58N 35°34' E 140°03'0 0.0
2018-Feb-20 01:28N 35°34' E 140°03'0 0.0
2018-Feb-20 00:55N 35°34' E 140°03'0 0.0
2018-Feb-20 00:28N 35°34' E 140°03'0 0.0
2018-Feb-19 23:58N 35°34' E 140°03'0 0.0
2018-Feb-19 23:25N 35°34' E 140°03'0 0.0
2018-Feb-19 22:55N 35°34' E 140°03'0 0.1
2018-Feb-19 22:28N 35°34' E 140°04'0 0.0
2018-Feb-19 21:55N 35°34' E 140°04'0 0.0
2018-Feb-19 21:25N 35°34' E 140°04'0 0.1
2018-Feb-19 20:58N 35°34' E 140°03'0 0.0
2018-Feb-19 20:28N 35°34' E 140°03'0 0.1
2018-Feb-19 19:55N 35°34' E 140°04'0 0.0
2018-Feb-19 19:25N 35°34' E 140°04'0 0.1
2018-Feb-19 18:58N 35°34' E 140°03'0 0.0
2018-Feb-19 18:28N 35°34' E 140°03'0 0.0
2018-Feb-19 17:58N 35°34' E 140°03'0 0.0
2018-Feb-19 17:25N 35°34' E 140°03'0 0.0
2018-Feb-19 16:55N 35°34' E 140°03'0 0.0
2018-Feb-19 16:25N 35°34' E 140°03'0 0.0
2018-Feb-19 15:58N 35°34' E 140°03'0 0.0
2018-Feb-19 15:25N 35°34' E 140°03'0 0.0
2018-Feb-19 14:58N 35°34' E 140°03'0 0.0
2018-Feb-19 14:19N 35°34' E 140°03'0 0.0
2018-Feb-19 13:55N 35°34' E 140°03'0 0.0
2018-Feb-19 13:28N 35°34' E 140°03'0 0.0
2018-Feb-19 12:55N 35°34' E 140°03'0 0.0
2018-Feb-19 12:25N 35°34' E 140°03'0 0.0
2018-Feb-19 11:55N 35°34' E 140°03'0 0.0
2018-Feb-19 11:28N 35°34' E 140°03'0 0.0
2018-Feb-19 10:55N 35°34' E 140°03'0 0.0
2018-Feb-19 10:25N 35°34' E 140°03'0 0.0
2018-Feb-19 09:55N 35°34' E 140°03'0 0.0
2018-Feb-19 09:25N 35°34' E 140°03'0 0.0
2018-Feb-19 08:58N 35°34' E 140°03'0 0.0
2018-Feb-19 08:25N 35°34' E 140°03'0 0.1
2018-Feb-19 07:55N 35°34' E 140°04'0 0.0
2018-Feb-19 07:25N 35°34' E 140°04'0 0.6
2018-Feb-19 07:00N 35°34' E 140°03'4 8.6
2018-Feb-19 06:30N 35°31' E 139°59'4 7.7
2018-Feb-19 05:59N 35°29' E 139°55'0 0.1
2018-Feb-19 05:28N 35°29' E 139°55'0 0.0
2018-Feb-19 04:58N 35°29' E 139°55'0 0.0
2018-Feb-19 04:25N 35°29' E 139°55'0 0.0
2018-Feb-19 03:55N 35°29' E 139°55'0 0.0
2018-Feb-19 03:25N 35°29' E 139°55'0 0.0
2018-Feb-19 02:55N 35°29' E 139°55'0 0.0
2018-Feb-19 02:28N 35°29' E 139°55'0 0.0
2018-Feb-19 01:58N 35°29' E 139°55'0 0.0
2018-Feb-19 01:28N 35°29' E 139°55'0 0.0
2018-Feb-19 00:55N 35°29' E 139°55'0 0.0
2018-Feb-19 00:28N 35°29' E 139°55'0 0.0
2018-Feb-18 23:58N 35°29' E 139°55'0 0.1
2018-Feb-18 23:28N 35°29' E 139°55'0 0.0
2018-Feb-18 22:58N 35°29' E 139°55'0 0.0
2018-Feb-18 22:28N 35°29' E 139°55'0 0.4
2018-Feb-18 22:01N 35°29' E 139°55'510.8
2018-Feb-18 21:31N 35°26' E 139°49'611.9
2018-Feb-18 21:00N 35°21' E 139°45'611.3
2018-Feb-18 20:31N 35°16' E 139°47'612.2
2018-Feb-18 20:00N 35°10' E 139°47'611.9
2018-Feb-18 19:28N 35°04' E 139°44'611.9
2018-Feb-18 18:58N 35°00' E 139°39'712.0
2018-Feb-18 18:25N 34°56' E 139°32'612.1
2018-Feb-18 17:57N 34°53' E 139°27'612.9
2018-Feb-18 17:30N 34°49' E 139°21'713.4
2018-Feb-18 17:00N 34°45' E 139°15'713.6
2018-Feb-18 16:30N 34°41' E 139°08'712.9
2018-Feb-18 15:58N 34°36' E 139°02'612.0
2018-Feb-18 15:29N 34°34' E 138°56'612.8
2018-Feb-18 14:59N 34°33' E 138°48'612.3
2018-Feb-18 14:28N 34°33' E 138°40'712.9
2018-Feb-18 13:57N 34°33' E 138°32'612.4
2018-Feb-18 13:27N 34°33' E 138°25'612.3
2018-Feb-18 12:57N 34°32' E 138°17'5412.5
2018-Feb-18 08:36N 34°32' E 137°11'112.7
2018-Feb-18 08:30N 34°32' E 137°10'611.8
2018-Feb-18 07:58N 34°32' E 137°02'811.2
2018-Feb-18 07:13N 34°38' E 136°54'311.6
2018-Feb-18 06:59N 34°39' E 136°51'612.1
2018-Feb-18 06:30N 34°44' E 136°47'612.3
2018-Feb-18 06:00N 34°50' E 136°44'612.2
2018-Feb-18 05:30N 34°55' E 136°42'4 6.2
2018-Feb-18 04:55N 34°59' E 136°40'0 0.0
2018-Feb-18 04:25N 34°59' E 136°40'0 0.0
2018-Feb-18 03:58N 34°59' E 136°40'0 0.0
2018-Feb-18 03:25N 34°59' E 136°40'0 0.0
2018-Feb-18 02:55N 34°59' E 136°40'0 0.3
2018-Feb-18 02:31N 34°59' E 136°40'1 2.2
2018-Feb-18 02:01N 34°58' E 136°41'1 0.9
2018-Feb-18 01:26N 34°57' E 136°41'0 0.0
2018-Feb-18 00:56N 34°57' E 136°41'0 0.0
2018-Feb-18 00:29N 34°57' E 136°41'0 0.0
2018-Feb-17 23:56N 34°57' E 136°41'0 0.0
2018-Feb-17 23:26N 34°57' E 136°41'0 0.0
2018-Feb-17 22:56N 34°57' E 136°41'0 0.0
2018-Feb-17 22:14N 34°57' E 136°41'0 0.0
2018-Feb-17 21:56N 34°57' E 136°41'0 0.0
2018-Feb-17 21:26N 34°57' E 136°41'0 0.0
2018-Feb-17 20:56N 34°57' E 136°41'0 0.0
2018-Feb-17 20:26N 34°57' E 136°41'0 0.0
2018-Feb-17 19:56N 34°57' E 136°41'0 0.0
2018-Feb-17 19:26N 34°57' E 136°41'0 0.0
2018-Feb-17 18:59N 34°57' E 136°41'0 0.0
2018-Feb-17 18:26N 34°57' E 136°41'0 0.0
2018-Feb-17 17:56N 34°57' E 136°41'0 0.0
2018-Feb-17 17:26N 34°57' E 136°41'0 0.0
2018-Feb-17 16:59N 34°57' E 136°41'0 0.6
2018-Feb-17 16:30N 34°57' E 136°41'510.6
2018-Feb-17 16:00N 34°52' E 136°43'510.6
2018-Feb-17 15:30N 34°48' E 136°46'5 9.7
2018-Feb-17 14:58N 34°43' E 136°49'5 9.5
2018-Feb-17 14:26N 34°39' E 136°53'253 9.2
2018-Feb-16 10:52N 33°10' E 132°08'610.6
2018-Feb-16 10:17N 33°14' E 132°04'310.8
2018-Feb-16 09:59N 33°17' E 132°02'810.2
2018-Feb-16 09:12N 33°24' E 131°57'510.8
2018-Feb-16 08:44N 33°29' E 131°55'311.0
2018-Feb-16 08:27N 33°32' E 131°54'611.4
2018-Feb-16 07:53N 33°38' E 131°52'511.5
2018-Feb-16 07:29N 33°43' E 131°50'611.8
2018-Feb-16 06:59N 33°48' E 131°48'611.8
2018-Feb-16 06:30N 33°54' E 131°47'611.6
2018-Feb-16 06:00N 33°59' E 131°45'4 0.6
2018-Feb-15 23:26N 34°02' E 131°48'1 0.4
2018-Feb-15 21:07N 34°02' E 131°48'0 0.0
2018-Feb-15 16:13N 34°02' E 131°48'0 0.0
2018-Feb-15 15:49N 34°02' E 131°48'0 0.1
2018-Feb-15 15:25N 34°02' E 131°48'0 0.0
2018-Feb-15 14:43N 34°02' E 131°48'0 0.1
2018-Feb-15 14:25N 34°02' E 131°48'0 0.0
2018-Feb-15 13:19N 34°02' E 131°48'0 0.1
2018-Feb-15 12:55N 34°02' E 131°48'2 4.4
2018-Feb-15 12:30N 34°00' E 131°47'4 8.7
2018-Feb-15 12:00N 33°56' E 131°47'811.8
2018-Feb-15 11:19N 33°51' E 131°55'511.9
2018-Feb-15 10:55N 33°48' E 131°60'5 9.5
2018-Feb-15 10:26N 33°47' E 132°05'511.2
2018-Feb-15 09:59N 33°49' E 132°10'611.3
2018-Feb-15 09:27N 33°50' E 132°17'1211.1
2018-Feb-15 08:23N 33°53' E 132°31'512.1
2018-Feb-15 08:00N 33°54' E 132°36'712.5
2018-Feb-15 07:25N 33°59' E 132°43'7811.2
2018-Feb-15 00:24N 34°24' E 134°13'512.6
2018-Feb-15 00:00N 34°24' E 134°19'612.3
2018-Feb-14 23:30N 34°21' E 134°26'612.2
2018-Feb-14 23:00N 34°17' E 134°32'711.9
2018-Feb-14 22:25N 34°14' E 134°39'613.0
2018-Feb-14 21:55N 34°09' E 134°44'512.0
2018-Feb-14 21:29N 34°05' E 134°48'712.1
2018-Feb-14 20:55N 34°00' E 134°54'511.8
2018-Feb-14 20:27N 33°56' E 134°58'512.2
2018-Feb-14 20:00N 33°52' E 135°02'102 7.4
2018-Feb-14 06:19N 34°38' E 136°52'411.2
2018-Feb-14 05:58N 34°41' E 136°49'511.8
2018-Feb-14 05:30N 34°46' E 136°46'611.6
2018-Feb-14 05:00N 34°52' E 136°43'611.2
2018-Feb-14 04:30N 34°57' E 136°41'2 4.1
2018-Feb-14 04:00N 34°59' E 136°40'0 0.0
2018-Feb-14 03:27N 34°59' E 136°40'0 0.0
2018-Feb-14 02:57N 34°59' E 136°40'0 0.0
2018-Feb-14 02:27N 34°59' E 136°40'0 0.0
2018-Feb-14 01:57N 34°59' E 136°40'0 0.0
2018-Feb-14 01:27N 34°59' E 136°40'0 0.0
2018-Feb-14 00:57N 34°59' E 136°40'0 0.0
2018-Feb-14 00:30N 34°59' E 136°40'0 0.0
2018-Feb-13 23:57N 34°59' E 136°40'0 0.0
2018-Feb-13 23:27N 34°59' E 136°40'1 2.3
2018-Feb-13 23:00N 34°58' E 136°41'0 0.5
2018-Feb-13 22:19N 34°58' E 136°41'0 0.1
2018-Feb-13 21:55N 34°58' E 136°41'0 0.0
2018-Feb-13 21:25N 34°58' E 136°41'0 0.0
2018-Feb-13 20:55N 34°58' E 136°41'0 0.0
2018-Feb-13 20:25N 34°58' E 136°41'0 0.0
2018-Feb-13 19:58N 34°58' E 136°41'0 0.0
2018-Feb-13 19:25N 34°58' E 136°41'0 0.1
2018-Feb-13 18:58N 34°58' E 136°41'0 0.1
2018-Feb-13 18:28N 34°58' E 136°41'0 0.0
2018-Feb-13 17:55N 34°58' E 136°41'0 0.1
2018-Feb-13 17:25N 34°58' E 136°41'0 0.0
2018-Feb-13 16:58N 34°58' E 136°41'0 0.1
2018-Feb-13 16:25N 34°58' E 136°41'0 0.1
2018-Feb-13 15:55N 34°58' E 136°41'0 0.1
2018-Feb-13 15:25N 34°58' E 136°41'0 0.0
2018-Feb-13 14:55N 34°58' E 136°41'0 0.0
2018-Feb-13 14:25N 34°58' E 136°41'0 0.0
2018-Feb-13 13:58N 34°58' E 136°41'0 0.0
2018-Feb-13 13:25N 34°58' E 136°41'0 0.1
2018-Feb-13 12:55N 34°58' E 136°41'0 0.0
2018-Feb-13 12:25N 34°58' E 136°41'0 0.0
2018-Feb-13 11:55N 34°58' E 136°41'0 0.0
2018-Feb-13 11:25N 34°58' E 136°41'0 0.0
2018-Feb-13 10:55N 34°58' E 136°41'0 0.0
2018-Feb-13 10:25N 34°58' E 136°41'0 0.0
2018-Feb-13 09:55N 34°58' E 136°41'0 0.1
2018-Feb-13 09:25N 34°58' E 136°41'0 0.0
2018-Feb-13 09:00N 34°58' E 136°41'5 9.8
2018-Feb-13 08:31N 34°53' E 136°42'510.8
2018-Feb-13 08:01N 34°49' E 136°46'510.9
2018-Feb-13 07:31N 34°44' E 136°49'102 7.9
2018-Feb-12 18:34N 33°45' E 135°08'311.9
2018-Feb-12 18:17N 33°48' E 135°05'412.0
2018-Feb-12 17:59N 33°51' E 135°03'611.9
2018-Feb-12 17:30N 33°55' E 134°58'611.7
2018-Feb-12 17:00N 33°59' E 134°53'611.7
2018-Feb-12 16:30N 34°04' E 134°49'612.2
2018-Feb-12 16:00N 34°09' E 134°44'612.8
2018-Feb-12 15:30N 34°14' E 134°39'612.2
2018-Feb-12 14:59N 34°17' E 134°33'612.2
2018-Feb-12 14:30N 34°19' E 134°26'  

Dump ship's entire track history